Time;durP1;ratioP1;P1;durP2;ratioP2;P2;SDS_P1;SDS_P2;PMS_P1;PMS_P2;Temp;Humidity;BMP_temperature;BMP_pressure;BME280_temperature;BME280_humidity;BME280_pressure;Samples;Min_cycle;Max_cycle;Signal;HPM_P1;HPM_P2
2022/05/27 00:00:20;;;;;;;6.97;2.30;;;25.20;58.30;;;;;;5071451;28;20033;-80
2022/05/27 00:02:50;;;;;;;3.63;1.95;;;25.30;58.30;;;;;;5055031;28;20094;-79
2022/05/27 00:05:17;;;;;;;3.25;2.20;;;25.10;58.20;;;;;;5055236;28;20043;-80
2022/05/27 00:07:43;;;;;;;4.50;2.25;;;25.10;58.40;;;;;;5055281;28;20028;-80
2022/05/27 00:10:11;;;;;;;6.60;2.42;;;25.30;58.40;;;;;;5054143;28;20020;-81
2022/05/27 00:12:38;;;;;;;4.00;2.22;;;25.40;58.00;;;;;;5055246;28;20563;-80
2022/05/27 00:15:05;;;;;;;3.92;2.40;;;25.50;58.10;;;;;;5073099;28;20024;-81
2022/05/27 00:17:30;;;;;;;3.65;2.28;;;25.50;58.30;;;;;;5054594;28;20128;-84
2022/05/27 00:19:56;;;;;;;5.50;2.30;;;25.40;58.00;;;;;;5073047;28;20029;-81
2022/05/27 00:22:22;;;;;;;3.80;2.30;;;25.40;58.00;;;;;;5055239;28;20037;-80
2022/05/27 00:24:48;;;;;;;4.30;2.05;;;25.30;58.10;;;;;;5054034;28;20016;-80
2022/05/27 00:27:14;;;;;;;3.50;2.20;;;25.10;58.80;;;;;;5072273;28;20033;-80
2022/05/27 00:29:40;;;;;;;4.47;2.22;;;24.90;59.10;;;;;;5055959;28;20029;-82
2022/05/27 00:32:08;;;;;;;3.85;2.38;;;25.00;58.90;;;;;;5054970;28;20078;-81
2022/05/27 00:34:33;;;;;;;4.60;2.47;;;25.10;59.00;;;;;;5054802;28;20036;-81
2022/05/27 00:37:05;;;;;;;4.45;2.47;;;25.10;58.80;;;;;;5054846;28;20024;-80
2022/05/27 00:39:31;;;;;;;3.80;2.50;;;25.10;58.90;;;;;;5054916;28;20139;-80
2022/05/27 00:41:57;;;;;;;5.28;2.70;;;25.10;58.80;;;;;;5054877;28;20502;-80
2022/05/27 00:44:23;;;;;;;4.93;2.60;;;25.10;59.40;;;;;;5071291;28;20032;-80
2022/05/27 00:46:49;;;;;;;3.67;2.55;;;25.00;59.00;;;;;;5074644;28;20036;-79
2022/05/27 00:49:23;;;;;;;4.43;2.70;;;25.00;58.90;;;;;;5076782;28;20067;-80
2022/05/27 00:51:58;;;;;;;3.47;2.55;;;25.00;59.10;;;;;;5059030;28;20028;-81
2022/05/27 00:54:26;;;;;;;4.00;2.65;;;25.00;59.00;;;;;;5075977;28;20394;-79
2022/05/27 00:56:56;;;;;;;3.90;2.70;;;25.00;58.90;;;;;;5059062;28;20135;-80
2022/05/27 00:59:39;;;;;;;3.63;2.72;;;24.90;58.90;;;;;;5077244;28;20052;-80
2022/05/27 01:02:05;;;;;;;6.32;2.83;;;24.90;58.70;;;;;;5076180;28;20044;-81
2022/05/27 01:04:34;;;;;;;3.55;2.50;;;24.80;59.30;;;;;;5075562;28;20056;-80
2022/05/27 01:06:59;;;;;;;4.22;2.55;;;24.50;59.80;;;;;;5076473;28;20025;-81
2022/05/27 01:09:26;;;;;;;5.88;3.15;;;24.60;59.40;;;;;;5074847;28;20086;-80
2022/05/27 01:12:24;;;;;;;5.22;3.38;;;24.70;58.90;;;;;;5038543;28;20475;-81
2022/05/27 01:15:17;;;;;;;4.50;2.65;;;24.70;58.80;;;;;;5038751;28;20032;-81
2022/05/27 01:18:24;;;;;;;3.45;2.78;;;24.60;59.20;;;;;;5056490;28;20538;-81
2022/05/27 01:21:05;;;;;;;4.00;2.70;;;24.20;60.50;;;;;;4966818;28;20050;-81
2022/05/27 01:23:50;;;;;;;4.93;2.70;;;24.20;59.60;;;;;;4975611;28;20146;-81
2022/05/27 01:26:18;;;;;;;4.75;3.15;;;24.20;59.20;;;;;;4975790;28;20035;-81
2022/05/27 01:28:50;;;;;;;3.90;2.97;;;24.20;58.90;;;;;;4974611;28;20109;-81
2022/05/27 01:31:26;;;;;;;5.38;2.75;;;24.00;59.20;;;;;;4975364;28;20039;-81
2022/05/27 01:34:10;;;;;;;4.88;3.03;;;24.10;59.20;;;;;;4975754;28;20060;-81
2022/05/27 01:36:56;;;;;;;3.88;2.90;;;23.90;59.80;;;;;;4975501;28;20034;-81
2022/05/27 01:39:22;;;;;;;7.03;3.00;;;23.90;60.10;;;;;;4972504;28;20070;-81
2022/05/27 01:41:57;;;;;;;5.82;2.80;;;23.90;59.90;;;;;;4975273;28;20055;-82
2022/05/27 01:44:56;;;;;;;4.63;3.03;;;23.90;59.60;;;;;;4974648;28;20418;-82
2022/05/27 01:47:36;;;;;;;4.10;2.85;;;23.90;60.00;;;;;;4917785;29;20040;-82
2022/05/27 01:50:05;;;;;;;6.13;3.08;;;23.90;59.80;;;;;;4913382;29;20072;-82
2022/05/27 01:52:38;;;;;;;5.30;3.15;;;23.90;59.50;;;;;;4917917;29;20436;-82
2022/05/27 01:55:35;;;;;;;4.22;2.70;;;23.80;60.00;;;;;;4902038;29;20601;-82
2022/05/27 01:58:25;;;;;;;4.70;2.75;;;24.00;59.70;;;;;;4959183;28;20046;-82
2022/05/27 02:00:51;;;;;;;3.97;2.90;;;23.90;60.20;;;;;;4964951;28;20174;-81
2022/05/27 02:03:28;;;;;;;4.85;2.95;;;23.90;60.00;;;;;;4958669;28;20389;-82
2022/05/27 02:06:10;;;;;;;3.30;2.33;;;24.10;59.70;;;;;;4989401;28;20030;-81
2022/05/27 02:08:54;;;;;;;4.25;3.15;;;23.80;60.00;;;;;;4977303;28;20058;-84
2022/05/27 02:11:22;;;;;;;4.53;2.53;;;23.50;60.50;;;;;;4977760;28;20033;-82
2022/05/27 02:14:08;;;;;;;5.40;2.60;;;23.20;61.20;;;;;;4992133;28;20038;-83
2022/05/27 02:16:50;;;;;;;4.00;2.95;;;23.10;61.60;;;;;;4977333;28;20523;-81
2022/05/27 02:19:33;;;;;;;7.15;2.90;;;23.30;60.90;;;;;;4977011;28;20030;-82
2022/05/27 02:22:13;;;;;;;4.63;2.90;;;23.50;60.50;;;;;;4976617;28;20061;-81
2022/05/27 02:24:45;;;;;;;4.38;2.90;;;23.70;60.00;;;;;;5066893;28;20037;-80
2022/05/27 02:27:20;;;;;;;7.72;3.13;;;23.80;60.20;;;;;;5074912;28;20055;-82
2022/05/27 02:29:56;;;;;;;4.72;2.80;;;23.90;59.50;;;;;;5047943;28;20133;-84
2022/05/27 02:32:31;;;;;;;4.20;2.65;;;23.90;59.10;;;;;;5056743;28;20115;-84
2022/05/27 02:35:09;;;;;;;4.00;2.88;;;23.80;59.50;;;;;;5075077;28;20016;-82
2022/05/27 02:37:54;;;;;;;4.15;2.80;;;23.70;59.70;;;;;;5057484;28;20394;-84
2022/05/27 02:40:28;;;;;;;7.50;3.20;;;23.70;59.60;;;;;;5074065;28;20040;-82
2022/05/27 02:43:13;;;;;;;4.30;2.92;;;23.80;59.30;;;;;;5074859;28;20033;-81
2022/05/27 02:45:52;;;;;;;5.50;3.28;;;23.80;59.30;;;;;;5074729;28;20391;-83
2022/05/27 02:48:27;;;;;;;4.32;3.30;;;23.80;59.30;;;;;;5074108;28;20032;-81
2022/05/27 02:51:00;;;;;;;4.13;2.83;;;23.80;58.90;;;;;;5057054;28;20033;-84
2022/05/27 02:53:44;;;;;;;4.30;3.17;;;23.80;58.60;;;;;;5074781;28;20031;-90
2022/05/27 02:56:12;;;;;;;4.00;2.90;;;23.60;59.10;;;;;;5075271;28;20029;-89
2022/05/27 02:58:38;;;;;;;5.07;3.08;;;23.40;59.60;;;;;;5055550;28;20017;-81
2022/05/27 03:01:04;;;;;;;5.80;2.90;;;23.30;60.20;;;;;;5074239;28;20039;-84
2022/05/27 03:03:30;;;;;;;3.75;2.92;;;23.30;59.90;;;;;;5074827;28;20028;-84
2022/05/27 03:06:14;;;;;;;4.15;2.90;;;23.40;59.80;;;;;;5056444;28;20025;-83
2022/05/27 03:08:56;;;;;;;3.97;2.80;;;23.40;59.90;;;;;;5055411;28;20063;-82
2022/05/27 03:11:40;;;;;;;4.32;2.80;;;23.40;60.10;;;;;;5073742;28;20039;-82
2022/05/27 03:14:37;;;;;;;3.95;2.70;;;23.50;59.80;;;;;;5056749;28;20025;-82
2022/05/27 03:17:28;;;;;;;5.60;3.33;;;23.60;59.60;;;;;;5055757;28;20054;-84
2022/05/27 03:20:26;;;;;;;4.75;2.78;;;23.60;59.60;;;;;;5055899;28;20070;-89
2022/05/27 03:22:54;;;;;;;5.57;2.88;;;23.60;59.30;;;;;;5074144;28;20099;-84
2022/05/27 03:26:12;;;;;;;6.95;2.75;;;23.40;59.80;;;;;;5056398;28;20052;-84
2022/05/27 03:28:54;;;;;;;4.32;2.70;;;23.40;60.10;;;;;;4972923;28;20039;-83
2022/05/27 03:31:43;;;;;;;4.10;2.60;;;23.40;60.20;;;;;;4957827;28;20034;-86
2022/05/27 03:34:21;;;;;;;5.35;2.40;;;23.40;60.30;;;;;;4957831;28;20027;-83
2022/05/27 03:37:17;;;;;;;4.60;2.42;;;23.30;60.80;;;;;;4956450;28;20034;-79
2022/05/27 03:39:52;;;;;;;4.15;2.60;;;23.30;60.70;;;;;;4972494;28;20046;-82
2022/05/27 03:42:19;;;;;;;5.32;2.30;;;23.50;60.50;;;;;;4956762;28;20129;-81
2022/05/27 03:44:51;;;;;;;6.25;2.90;;;23.60;60.40;;;;;;4955898;28;20042;-81
2022/05/27 03:47:16;;;;;;;5.75;3.08;;;23.70;60.40;;;;;;4972413;28;20027;-82
2022/05/27 03:49:42;;;;;;;5.30;2.63;;;23.90;60.00;;;;;;4956577;28;20037;-82
2022/05/27 03:52:20;;;;;;;5.45;2.70;;;24.10;59.80;;;;;;4956252;28;20034;-82
2022/05/27 03:54:46;;;;;;;5.10;2.75;;;24.20;59.60;;;;;;4973191;28;20445;-82
2022/05/27 03:57:12;;;;;;;4.32;2.40;;;24.20;59.60;;;;;;4957257;28;20493;-83
2022/05/27 03:59:38;;;;;;;3.40;2.38;;;24.00;60.00;;;;;;4956714;28;20026;-82
2022/05/27 04:02:04;;;;;;;3.67;2.20;;;23.90;60.20;;;;;;4970984;28;20113;-83
2022/05/27 04:04:30;;;;;;;4.65;2.15;;;23.90;60.30;;;;;;5013656;28;20128;-82
2022/05/27 04:07:23;;;;;;;4.32;2.17;;;23.90;60.30;;;;;;5053844;28;20095;-82
2022/05/27 04:09:48;;;;;;;5.90;2.20;;;23.90;60.60;;;;;;5053567;28;20094;-81
2022/05/27 04:12:14;;;;;;;4.55;2.40;;;23.90;60.70;;;;;;5052043;28;20468;-82
2022/05/27 04:14:40;;;;;;;5.95;2.40;;;23.80;60.80;;;;;;5051024;28;20021;-83
2022/05/27 04:19:50;;;;;;;5.18;2.40;;;24.20;60.10;;;;;;5053397;28;20028;-81
2022/05/27 04:22:16;;;;;;;5.18;2.53;;;24.40;60.20;;;;;;5056836;28;20041;-81
2022/05/27 04:24:41;;;;;;;3.78;2.40;;;24.50;59.90;;;;;;5055028;28;20021;-81
2022/05/27 04:27:16;;;;;;;3.17;2.20;;;24.30;60.20;;;;;;5055404;28;20116;-80
2022/05/27 04:29:47;;;;;;;6.50;2.30;;;24.40;59.70;;;;;;5055961;28;20032;-81
2022/05/27 04:32:14;;;;;;;4.60;2.17;;;24.60;59.60;;;;;;5055121;28;20029;-82
2022/05/27 04:34:40;;;;;;;3.40;2.33;;;24.80;59.10;;;;;;5054741;28;20032;-82
2022/05/27 04:37:07;;;;;;;3.60;2.50;;;25.00;58.50;;;;;;5056183;28;20486;-80
2022/05/27 04:39:34;;;;;;;6.65;2.70;;;25.00;58.40;;;;;;5061068;28;20102;-81
2022/05/27 04:41:59;;;;;;;4.30;2.53;;;25.10;58.60;;;;;;4723658;28;10000235;-81
2022/05/27 04:44:25;;;;;;;4.35;2.63;;;25.30;58.60;;;;;;5036235;28;20024;-78
2022/05/27 04:46:51;;;;;;;4.93;2.53;;;25.30;58.70;;;;;;5036037;28;20476;-77
2022/05/27 04:52:02;;;;;;;4.45;2.38;;;25.30;58.70;;;;;;5056714;28;20083;-79
2022/05/27 04:54:28;;;;;;;4.20;2.53;;;25.30;59.00;;;;;;5054760;28;20471;-78
2022/05/27 04:56:55;;;;;;;4.22;2.63;;;24.90;59.70;;;;;;5056837;28;20060;-79
2022/05/27 04:59:21;;;;;;;3.95;2.72;;;24.90;59.90;;;;;;5074124;28;20175;-78
2022/05/27 05:01:47;;;;;;;4.80;2.80;;;25.20;59.40;;;;;;5056158;28;20044;-78
2022/05/27 05:04:13;;;;;;;4.38;2.90;;;25.40;59.40;;;;;;5055745;28;20029;-78
2022/05/27 05:06:39;;;;;;;5.93;2.80;;;25.60;59.10;;;;;;5057596;28;20024;-77
2022/05/27 05:09:05;;;;;;;6.82;2.47;;;25.90;58.90;;;;;;5074993;28;20077;-77
2022/05/27 05:11:31;;;;;;;4.20;2.50;;;26.10;58.50;;;;;;5057653;28;20029;-78
2022/05/27 05:13:56;;;;;;;4.63;2.40;;;26.20;58.30;;;;;;5075025;28;20060;-81
2022/05/27 05:16:22;;;;;;;5.40;2.30;;;26.30;58.00;;;;;;5074106;28;20112;-80
2022/05/27 05:18:48;;;;;;;4.18;2.60;;;26.40;58.30;;;;;;5075809;28;20064;-89
2022/05/27 05:21:15;;;;;;;4.45;2.30;;;26.40;58.00;;;;;;5076040;28;20037;-79
2022/05/27 05:23:40;;;;;;;3.97;2.40;;;26.30;57.80;;;;;;5057443;28;20085;-76
2022/05/27 05:26:06;;;;;;;4.85;2.10;;;26.20;57.70;;;;;;5075097;28;20025;-77
2022/05/27 05:28:32;;;;;;;4.47;1.85;;;26.40;57.80;;;;;;5075481;28;20024;-77
2022/05/27 05:30:57;;;;;;;4.38;1.80;;;26.50;56.30;;;;;;5056390;28;20082;-78
2022/05/27 05:33:23;;;;;;;4.88;2.05;;;26.60;56.20;;;;;;5056743;28;20021;-76
2022/05/27 05:35:49;;;;;;;3.25;1.80;;;26.40;55.70;;;;;;5074199;28;20024;-76
2022/05/27 05:38:15;;;;;;;3.33;1.80;;;26.60;54.70;;;;;;5074349;28;20033;-81
2022/05/27 05:40:41;;;;;;;3.63;1.73;;;26.70;53.40;;;;;;5075504;28;20112;-78
2022/05/27 05:43:07;;;;;;;5.47;2.17;;;26.80;52.70;;;;;;5040895;28;20041;-78
2022/05/27 05:45:33;;;;;;;3.30;1.60;;;26.80;52.70;;;;;;5074123;28;20486;-78
2022/05/27 05:48:00;;;;;;;4.07;1.80;;;26.70;52.20;;;;;;5055328;28;20028;-84
2022/05/27 05:50:27;;;;;;;3.97;1.70;;;26.70;52.50;;;;;;5052606;28;20029;-77
2022/05/27 05:52:53;;;;;;;3.55;1.63;;;26.70;52.40;;;;;;5074104;28;20021;-79
2022/05/27 05:55:20;;;;;;;2.85;1.67;;;26.70;52.40;;;;;;5072138;28;20107;-78
2022/05/27 05:57:49;;;;;;;2.88;1.50;;;26.80;53.10;;;;;;5054762;28;20150;-78
2022/05/27 06:00:21;;;;;;;3.83;1.63;;;26.80;52.20;;;;;;5074156;28;20464;-87
2022/05/27 06:02:47;;;;;;;4.28;1.80;;;26.90;52.30;;;;;;5074204;28;20039;-80
2022/05/27 06:05:14;;;;;;;3.13;1.73;;;26.70;52.80;;;;;;5073010;28;20021;-77
2022/05/27 06:07:41;;;;;;;3.58;1.60;;;26.80;51.50;;;;;;5070540;28;20024;-77
2022/05/27 06:10:08;;;;;;;4.55;1.77;;;26.90;51.60;;;;;;5072448;28;20367;-75
2022/05/27 06:12:35;;;;;;;3.00;1.42;;;27.00;51.90;;;;;;5072975;28;20024;-75
2022/05/27 06:15:03;;;;;;;2.95;1.70;;;27.00;51.30;;;;;;5074713;28;20085;-75
2022/05/27 06:17:28;;;;;;;3.75;1.92;;;26.70;51.80;;;;;;5055597;28;20027;-77
2022/05/27 06:19:54;;;;;;;4.28;1.85;;;26.80;51.50;;;;;;5055830;28;20392;-84
2022/05/27 06:22:20;;;;;;;3.28;1.60;;;26.90;51.20;;;;;;5074712;28;20069;-85
2022/05/27 06:24:46;;;;;;;4.88;1.90;;;26.90;51.80;;;;;;5056262;28;20730;-77
2022/05/27 06:27:12;;;;;;;3.95;1.48;;;26.80;52.20;;;;;;5073445;28;20413;-77
2022/05/27 06:35:07;;;;;;;4.43;1.60;;;26.90;51.00;;;;;;5074637;28;20078;-76
2022/05/27 06:37:34;;;;;;;3.92;1.60;;;27.00;50.60;;;;;;5056027;28;20044;-76
2022/05/27 06:40:03;;;;;;;3.05;1.75;;;27.20;50.60;;;;;;5056200;28;20055;-85
2022/05/27 06:42:29;;;;;;;3.92;1.58;;;27.00;49.60;;;;;;5056568;28;20047;-77
2022/05/27 06:44:55;;;;;;;2.83;1.40;;;26.90;50.70;;;;;;5073805;28;20040;-83
2022/05/27 06:47:21;;;;;;;5.10;1.52;;;26.90;50.80;;;;;;5073888;28;20067;-78
2022/05/27 06:49:46;;;;;;;3.45;1.52;;;27.30;50.50;;;;;;5074211;28;20104;-77
2022/05/27 06:52:14;;;;;;;3.15;1.80;;;27.80;50.80;;;;;;5074168;28;20455;-79
2022/05/27 06:54:41;;;;;;;4.30;1.52;;;28.40;49.80;;;;;;5072931;28;20031;-85
2022/05/27 06:57:07;;;;;;;6.57;1.60;;;28.50;49.70;;;;;;5074097;28;20385;-82
2022/05/27 06:59:34;;;;;;;4.10;1.60;;;28.70;49.70;;;;;;5073736;28;20025;-84
2022/05/27 07:02:00;;;;;;;6.15;1.85;;;28.50;49.30;;;;;;5055591;28;20033;-78
2022/05/27 07:04:26;;;;;;;2.90;1.42;;;27.60;49.70;;;;;;5056096;28;20383;-78
2022/05/27 07:06:51;;;;;;;3.70;1.42;;;27.40;50.10;;;;;;5055552;28;20032;-77
2022/05/27 07:09:20;;;;;;;2.97;1.70;;;27.40;50.90;;;;;;4365887;28;10000708;-76
2022/05/27 07:11:48;;;;;;;2.90;1.40;;;27.60;49.90;;;;;;5053756;28;20033;-78
2022/05/27 07:14:14;;;;;;;3.67;1.58;;;27.90;49.80;;;;;;5053544;28;20029;-88
2022/05/27 07:16:46;;;;;;;2.95;1.45;;;27.80;49.80;;;;;;5035758;28;20025;-79
2022/05/27 07:19:12;;;;;;;3.20;1.67;;;27.50;51.00;;;;;;5033500;28;20532;-76
2022/05/27 07:21:46;;;;;;;4.10;1.50;;;27.60;50.50;;;;;;5053008;28;20497;-77
2022/05/27 07:24:13;;;;;;;5.50;1.70;;;27.90;50.20;;;;;;5053736;28;20075;-82
2022/05/27 07:26:40;;;;;;;4.18;1.45;;;27.80;51.10;;;;;;5054796;28;20026;-78
2022/05/27 07:29:07;;;;;;;4.30;1.60;;;27.80;51.80;;;;;;5035588;28;20096;-84
2022/05/27 07:31:38;;;;;;;2.80;1.50;;;28.00;50.90;;;;;;5035091;28;20025;-77
2022/05/27 07:34:04;;;;;;;3.80;1.50;;;28.20;50.90;;;;;;5053146;28;20459;-77
2022/05/27 07:36:30;;;;;;;3.10;1.70;;;28.40;51.20;;;;;;5053561;28;20029;-82
2022/05/27 07:38:56;;;;;;;4.25;1.60;;;28.70;49.50;;;;;;5053606;28;20017;-76
2022/05/27 07:41:23;;;;;;;3.90;1.60;;;27.50;50.00;;;;;;5052944;28;20411;-75
2022/05/27 07:43:50;;;;;;;3.38;1.55;;;27.50;50.60;;;;;;5035161;28;20039;-80
2022/05/27 07:46:16;;;;;;;3.00;1.45;;;28.00;51.00;;;;;;5053275;28;20027;-82
2022/05/27 07:48:46;;;;;;;2.92;1.40;;;27.90;49.60;;;;;;5035357;28;20025;-81
2022/05/27 07:51:12;;;;;;;4.60;1.60;;;28.00;50.10;;;;;;5049986;28;20044;-81
2022/05/27 07:53:38;;;;;;;8.85;2.00;;;28.00;50.40;;;;;;5053215;28;20147;-82
2022/05/27 07:56:08;;;;;;;4.85;1.52;;;28.00;50.10;;;;;;5052463;28;20044;-78
2022/05/27 07:58:33;;;;;;;3.13;1.50;;;27.90;50.10;;;;;;5052972;28;20028;-82
2022/05/27 08:01:00;;;;;;;2.60;1.48;;;27.40;51.20;;;;;;5035267;28;20033;-81
2022/05/27 08:03:25;;;;;;;3.53;1.50;;;27.60;51.30;;;;;;5054386;28;20025;-80
2022/05/27 08:05:52;;;;;;;6.68;1.70;;;28.00;49.80;;;;;;5035955;28;20082;-77
2022/05/27 08:08:19;;;;;;;2.67;1.40;;;28.40;49.70;;;;;;5053035;28;20071;-86
2022/05/27 08:10:45;;;;;;;4.78;1.50;;;28.60;49.00;;;;;;5053263;28;20555;-82
2022/05/27 08:13:11;;;;;;;3.33;1.50;;;28.50;49.50;;;;;;5036239;28;20068;-85
2022/05/27 08:15:37;;;;;;;3.17;1.20;;;28.20;49.80;;;;;;5052946;28;20094;-78
2022/05/27 08:18:04;;;;;;;3.50;1.95;;;28.30;49.70;;;;;;5053005;28;20371;-84
2022/05/27 08:20:31;;;;;;;3.30;1.40;;;28.30;49.30;;;;;;5035044;28;20033;-81
2022/05/27 08:22:57;;;;;;;2.80;1.40;;;28.10;49.10;;;;;;5053029;28;20044;-91
2022/05/27 08:25:25;;;;;;;4.05;1.60;;;28.30;50.00;;;;;;5034953;28;20116;-80
2022/05/27 08:27:51;;;;;;;3.58;1.55;;;28.80;49.30;;;;;;5035112;28;20487;-79
2022/05/27 08:30:20;;;;;;;4.65;1.40;;;29.10;48.40;;;;;;5052475;28;20036;-83
2022/05/27 08:32:49;;;;;;;3.72;1.38;;;29.40;48.80;;;;;;5035236;28;20029;-83
2022/05/27 08:38:07;;;;;;;5.55;1.73;;;29.10;48.50;;;;;;5053006;28;20064;-81
2022/05/27 08:40:55;;;;;;;2.63;1.40;;;28.80;49.00;;;;;;5052769;28;20105;-89
2022/05/27 08:43:42;;;;;;;4.95;1.50;;;28.50;49.10;;;;;;5052880;28;20143;-81
2022/05/27 08:46:27;;;;;;;2.95;1.50;;;28.50;48.40;;;;;;5052763;28;20049;-82
2022/05/27 08:49:00;;;;;;;4.82;1.60;;;28.60;49.40;;;;;;5052571;28;20440;-83
2022/05/27 08:51:33;;;;;;;3.47;1.60;;;28.90;50.00;;;;;;5052786;28;20426;-81
2022/05/27 08:54:08;;;;;;;5.93;1.50;;;29.10;48.40;;;;;;5052489;28;20025;-81
2022/05/27 08:59:40;;;;;;;3.47;1.40;;;29.50;47.40;;;;;;5053033;28;20098;-84
2022/05/27 09:02:48;;;;;;;4.20;1.50;;;29.70;47.60;;;;;;5052483;28;20033;-83
2022/05/27 09:05:25;;;;;;;3.10;1.45;;;29.60;47.80;;;;;;4971563;28;20078;-86
2022/05/27 09:07:57;;;;;;;3.17;1.52;;;29.70;47.50;;;;;;4975084;28;20038;-83
2022/05/27 09:10:54;;;;;;;5.72;1.27;;;29.60;47.10;;;;;;4976000;28;20477;-87
2022/05/27 09:13:47;;;;;;;3.13;1.50;;;29.50;47.60;;;;;;4937926;29;20078;-83
2022/05/27 09:16:18;;;;;;;2.60;1.45;;;29.10;47.10;;;;;;4936903;29;20027;-83
2022/05/27 09:19:02;;;;;;;3.53;1.33;;;29.20;49.40;;;;;;4936784;29;20040;-79
2022/05/27 09:22:01;;;;;;;6.03;1.42;;;29.20;47.90;;;;;;4936543;29;20082;-83
2022/05/27 09:24:45;;;;;;;4.20;1.30;;;28.80;47.20;;;;;;4936779;29;20044;-85
2022/05/27 09:27:28;;;;;;;4.85;1.42;;;28.70;48.20;;;;;;4921094;29;20035;-81
2022/05/27 09:30:04;;;;;;;8.38;1.60;;;28.60;48.40;;;;;;4920729;29;20135;-81
2022/05/27 09:32:40;;;;;;;5.15;1.50;;;28.50;47.80;;;;;;4920713;29;20020;-86
2022/05/27 09:35:10;;;;;;;4.30;1.50;;;28.60;48.10;;;;;;4920901;29;20036;-81
2022/05/27 09:37:44;;;;;;;4.35;1.80;;;28.80;49.10;;;;;;4936682;29;20537;-79
2022/05/27 09:40:17;;;;;;;5.95;1.50;;;29.20;48.50;;;;;;4920721;29;20086;-84
2022/05/27 09:43:04;;;;;;;5.75;1.73;;;28.80;48.40;;;;;;4974460;28;20097;-83
2022/05/27 09:45:30;;;;;;;5.78;1.40;;;28.90;48.50;;;;;;4994057;28;20061;-80
2022/05/27 09:48:00;;;;;;;3.15;1.50;;;29.10;48.80;;;;;;4977830;28;20165;-80
2022/05/27 09:50:41;;;;;;;4.63;1.50;;;29.30;48.50;;;;;;5012876;28;20159;-77
2022/05/27 09:53:14;;;;;;;4.95;1.30;;;29.60;49.30;;;;;;5055358;28;20017;-85
2022/05/27 09:56:04;;;;;;;2.90;1.35;;;29.30;47.70;;;;;;5037864;28;20472;-89
2022/05/27 09:58:36;;;;;;;14.75;2.20;;;29.30;48.00;;;;;;5055168;28;20037;-84
2022/05/27 10:01:17;;;;;;;6.70;1.50;;;29.10;47.70;;;;;;5055345;28;20017;-89
2022/05/27 10:03:43;;;;;;;6.30;1.35;;;29.00;47.70;;;;;;5037963;28;20025;-86
2022/05/27 10:06:11;;;;;;;4.97;1.40;;;28.80;47.20;;;;;;5037733;28;20075;-83
2022/05/27 10:08:39;;;;;;;4.95;1.40;;;28.80;47.60;;;;;;5037760;28;20027;-81
2022/05/27 10:11:09;;;;;;;3.67;1.50;;;28.70;47.30;;;;;;5054903;28;20028;-81
2022/05/27 10:13:35;;;;;;;4.13;1.40;;;28.80;48.00;;;;;;5055428;28;20032;-83
2022/05/27 10:16:11;;;;;;;8.23;1.75;;;28.90;47.70;;;;;;5037127;28;20033;-88
2022/05/27 10:18:38;;;;;;;6.60;1.40;;;28.90;47.50;;;;;;5036183;28;20036;-87
2022/05/27 10:21:16;;;;;;;7.05;1.65;;;28.80;47.90;;;;;;5054883;28;20091;-82
2022/05/27 10:23:45;;;;;;;4.95;1.40;;;29.00;46.70;;;;;;5037030;28;20029;-78
2022/05/27 10:26:19;;;;;;;3.58;1.40;;;29.00;47.50;;;;;;5054887;28;20029;-87
2022/05/27 10:29:06;;;;;;;3.33;1.48;;;29.10;47.00;;;;;;5055248;28;20035;-80
2022/05/27 10:31:34;;;;;;;6.80;1.55;;;29.40;47.20;;;;;;5054692;28;20096;-81
2022/05/27 10:34:01;;;;;;;5.18;1.23;;;29.70;47.40;;;;;;5054375;28;20039;-76
2022/05/27 10:36:44;;;;;;;5.20;1.60;;;29.80;47.40;;;;;;5054535;28;20021;-82
2022/05/27 10:39:47;;;;;;;5.50;1.50;;;29.80;46.10;;;;;;5036605;28;20037;-83
2022/05/27 10:42:29;;;;;;;2.78;1.20;;;29.50;47.00;;;;;;5035921;28;20407;-81
2022/05/27 10:45:12;;;;;;;5.10;2.00;;;29.80;46.70;;;;;;5036491;28;20029;-81
2022/05/27 10:47:58;;;;;;;6.35;2.45;;;30.10;47.10;;;;;;5036525;28;20029;-81
2022/05/27 10:50:23;;;;;;;3.20;1.30;;;30.50;46.70;;;;;;5035917;28;20360;-88
2022/05/27 10:53:23;;;;;;;6.00;1.60;;;30.80;46.70;;;;;;5054252;28;20078;-87
2022/05/27 10:55:57;;;;;;;7.22;1.58;;;30.70;46.60;;;;;;5032749;28;20040;-81
2022/05/27 11:04:37;;;;;;;2.90;1.52;;;29.50;46.90;;;;;;5054347;28;20075;-80
2022/05/27 11:07:22;;;;;;;4.05;1.48;;;29.80;47.10;;;;;;5054155;28;20055;-83
2022/05/27 11:09:56;;;;;;;4.80;1.50;;;29.80;46.90;;;;;;5053014;28;20096;-80
2022/05/27 11:16:09;;;;;;;4.35;1.35;;;30.00;47.80;;;;;;5055061;28;20460;-82
2022/05/27 11:18:41;;;;;;;3.95;1.40;;;30.30;47.40;;;;;;5053877;28;20036;-84
2022/05/27 11:21:32;;;;;;;6.03;1.55;;;30.30;46.90;;;;;;5053758;28;20025;-82
2022/05/27 11:24:38;;;;;;;4.40;1.23;;;30.20;46.90;;;;;;5036596;28;20072;-80
2022/05/27 11:27:31;;;;;;;3.33;1.50;;;30.60;47.60;;;;;;5054019;28;20029;-81
2022/05/27 11:30:06;;;;;;;6.18;1.42;;;30.50;46.50;;;;;;5035519;28;20025;-84
2022/05/27 11:32:41;;;;;;;4.15;1.30;;;30.30;46.10;;;;;;5035748;28;20017;-85
2022/05/27 11:35:11;;;;;;;5.97;1.60;;;30.60;47.90;;;;;;5036307;28;20032;-89
2022/05/27 11:37:51;;;;;;;2.85;1.50;;;30.30;47.80;;;;;;5053586;28;20046;-80
2022/05/27 11:40:20;;;;;;;6.53;1.85;;;30.10;47.10;;;;;;5053834;28;20491;-85
2022/05/27 11:43:17;;;;;;;3.28;1.40;;;30.30;47.00;;;;;;5053123;28;20047;-82
2022/05/27 11:46:14;;;;;;;3.88;1.50;;;30.60;47.50;;;;;;5053243;28;20028;-80
2022/05/27 11:49:08;;;;;;;4.50;1.55;;;30.80;46.60;;;;;;5053795;28;20063;-84
2022/05/27 11:52:08;;;;;;;4.05;1.48;;;30.70;47.70;;;;;;5053272;28;20383;-81
2022/05/27 11:54:52;;;;;;;4.72;1.58;;;30.90;48.40;;;;;;5053530;28;20491;-87
2022/05/27 11:57:48;;;;;;;4.22;1.50;;;30.70;48.40;;;;;;5035763;28;20044;-81
2022/05/27 12:00:21;;;;;;;4.07;1.50;;;30.80;47.40;;;;;;5053177;28;20024;-85
2022/05/27 12:03:07;;;;;;;3.40;1.50;;;31.10;47.10;;;;;;5053085;28;20037;-83
2022/05/27 12:05:47;;;;;;;3.92;1.52;;;31.20;48.00;;;;;;5035240;28;20082;-84
2022/05/27 12:08:24;;;;;;;8.35;1.75;;;31.30;47.50;;;;;;5035483;28;20070;-78
2022/05/27 12:10:57;;;;;;;5.25;1.50;;;30.80;47.70;;;;;;5035655;28;20021;-84
2022/05/27 12:13:32;;;;;;;3.50;1.60;;;30.70;48.10;;;;;;5035586;28;20029;-82
2022/05/27 12:16:02;;;;;;;2.75;1.42;;;30.90;47.30;;;;;;5053117;28;20025;-81
2022/05/27 12:18:44;;;;;;;3.15;1.63;;;31.10;48.00;;;;;;5035370;28;20490;-83
2022/05/27 12:21:19;;;;;;;5.15;1.58;;;31.20;47.60;;;;;;5052945;28;20032;-77
2022/05/27 12:24:29;;;;;;;5.03;1.60;;;31.00;47.90;;;;;;5052940;28;20076;-86
2022/05/27 12:26:56;;;;;;;;;;;31.00;48.30;;;;;;4972443;28;20474;-85
2022/05/27 12:29:24;;;;;;;5.60;1.50;;;30.80;47.70;;;;;;4972377;28;19906;-85
2022/05/27 12:31:51;;;;;;;4.13;1.50;;;31.10;47.60;;;;;;4955675;28;20445;-78
2022/05/27 12:34:28;;;;;;;2.95;1.48;;;31.50;48.00;;;;;;4972030;28;20385;-84
2022/05/27 12:37:01;;;;;;;4.55;1.55;;;31.70;47.50;;;;;;4971856;28;20026;-86
2022/05/27 12:39:29;;;;;;;4.88;1.90;;;32.10;48.50;;;;;;4972599;28;20062;-80
2022/05/27 12:42:12;;;;;;;3.63;1.90;;;31.80;47.70;;;;;;4957692;28;20046;-81
2022/05/27 12:44:40;;;;;;;4.28;1.60;;;31.70;47.10;;;;;;4975944;28;20101;-82
2022/05/27 12:47:12;;;;;;;3.90;1.40;;;31.50;47.70;;;;;;4976173;28;20134;-82
2022/05/27 12:49:59;;;;;;;3.78;1.50;;;31.50;46.80;;;;;;4975673;28;20516;-81
2022/05/27 12:52:30;;;;;;;7.28;2.08;;;31.20;47.20;;;;;;4946072;28;20051;-85
2022/05/27 12:54:56;;;;;;;4.65;1.80;;;31.00;47.70;;;;;;4975908;28;20063;-78
2022/05/27 13:01:04;;;;;;;4.30;1.88;;;31.00;48.20;;;;;;5009387;28;20108;-81
2022/05/27 13:03:38;;;;;;;3.78;1.73;;;31.20;47.80;;;;;;5056601;28;20066;-87
2022/05/27 13:06:17;;;;;;;3.92;1.67;;;31.10;48.10;;;;;;5038852;28;20410;-81
2022/05/27 13:08:59;;;;;;;5.93;1.70;;;31.10;47.80;;;;;;5056425;28;20057;-82
2022/05/27 13:11:31;;;;;;;3.75;1.70;;;31.10;48.10;;;;;;5056287;28;20051;-77
2022/05/27 13:14:08;;;;;;;5.88;1.85;;;31.40;49.70;;;;;;5055903;28;20021;-85
2022/05/27 13:17:11;;;;;;;5.32;1.60;;;31.50;48.50;;;;;;5038324;28;20114;-78
2022/05/27 13:19:48;;;;;;;3.20;1.80;;;31.60;48.00;;;;;;5056604;28;20025;-83
2022/05/27 13:22:35;;;;;;;3.95;1.60;;;31.40;47.50;;;;;;5055977;28;20041;-80
2022/05/27 13:25:19;;;;;;;9.95;2.00;;;31.50;48.20;;;;;;5055502;28;20029;-82
2022/05/27 13:27:46;;;;;;;4.18;1.60;;;31.50;48.30;;;;;;5055787;28;20108;-79
2022/05/27 13:30:14;;;;;;;4.03;1.70;;;31.40;49.20;;;;;;5037920;28;20430;-78
2022/05/27 13:33:04;;;;;;;3.47;1.50;;;31.60;48.70;;;;;;5055598;28;20121;-78
2022/05/27 13:35:46;;;;;;;5.18;1.85;;;31.70;47.60;;;;;;5055999;28;20071;-80
2022/05/27 13:38:23;;;;;;;5.38;1.75;;;31.30;47.40;;;;;;5055677;28;20453;-80
2022/05/27 13:40:49;;;;;;;4.72;1.80;;;31.20;47.80;;;;;;5055874;28;20045;-77
2022/05/27 13:43:26;;;;;;;6.57;1.67;;;31.30;48.40;;;;;;5055186;28;20029;-86
2022/05/27 13:45:53;;;;;;;5.70;1.75;;;31.60;48.00;;;;;;5055570;28;20017;-78
2022/05/27 13:48:34;;;;;;;3.45;1.63;;;31.70;47.00;;;;;;5055592;28;20118;-80
2022/05/27 13:51:08;;;;;;;3.67;1.67;;;31.20;47.30;;;;;;5034206;28;20104;-77